createdAt,value
2023-02-07T00:01:18.286Z,7.80
2023-02-07T00:03:47.544Z,10.00
2023-02-07T00:06:17.499Z,11.00
2023-02-07T00:08:45.497Z,12.50
2023-02-07T00:11:20.326Z,11.90
2023-02-07T00:13:50.871Z,10.80
2023-02-07T00:16:19.340Z,9.60
2023-02-07T00:18:47.682Z,10.00
2023-02-07T00:21:18.197Z,10.10
2023-02-07T00:23:46.653Z,10.20
2023-02-07T00:26:15.541Z,6.60
2023-02-07T00:28:44.142Z,12.20
2023-02-07T00:31:13.462Z,7.70
2023-02-07T00:33:42.211Z,9.40
2023-02-07T00:36:13.234Z,12.30
2023-02-07T00:38:41.248Z,10.70
2023-02-07T00:41:09.350Z,9.90
2023-02-07T00:43:37.470Z,9.20
2023-02-07T00:46:05.745Z,13.40
2023-02-07T00:48:33.870Z,10.00
2023-02-07T00:51:01.809Z,9.50
2023-02-07T00:53:30.040Z,11.00
2023-02-07T00:55:58.092Z,11.70
2023-02-07T00:58:26.256Z,12.90
2023-02-07T01:00:54.415Z,11.40
2023-02-07T01:03:22.586Z,9.80
2023-02-07T01:05:51.222Z,10.80
2023-02-07T01:08:19.204Z,7.30
2023-02-07T01:10:47.317Z,9.90
2023-02-07T01:13:15.578Z,8.90
2023-02-07T01:15:45.253Z,8.10
2023-02-07T01:18:13.571Z,8.80
2023-02-07T01:20:41.719Z,11.40
2023-02-07T01:23:10.412Z,7.90
2023-02-07T01:25:39.706Z,11.20
2023-02-07T01:28:08.191Z,8.80
2023-02-07T01:30:38.593Z,5.70
2023-02-07T01:33:06.880Z,8.80
2023-02-07T01:35:35.317Z,10.40
2023-02-07T01:38:03.529Z,8.00
2023-02-07T01:40:32.318Z,11.20
2023-02-07T01:43:00.347Z,6.00
2023-02-07T01:45:40.090Z,6.50
2023-02-07T01:48:14.929Z,6.00
2023-02-07T01:50:44.051Z,9.80
2023-02-07T01:53:12.585Z,12.60
2023-02-07T01:55:41.443Z,11.60
2023-02-07T01:58:09.546Z,13.20
2023-02-07T02:00:37.588Z,9.00
2023-02-07T02:03:05.650Z,11.10
2023-02-07T02:05:34.152Z,11.90
2023-02-07T02:08:02.294Z,9.70
2023-02-07T02:10:41.524Z,11.10
2023-02-07T02:13:35.238Z,10.90
2023-02-07T02:16:24.963Z,10.60
2023-02-07T02:19:07.848Z,10.50
2023-02-07T02:21:53.988Z,6.30
2023-02-07T02:25:03.178Z,11.80
2023-02-07T02:27:56.150Z,7.40
2023-02-07T02:30:34.408Z,9.70
2023-02-07T02:33:25.099Z,7.00
2023-02-07T02:36:02.055Z,10.30
2023-02-07T02:38:43.501Z,10.60
2023-02-07T02:41:27.275Z,9.00
2023-02-07T02:44:29.630Z,13.50
2023-02-07T02:47:02.412Z,8.90
2023-02-07T02:49:31.205Z,5.70
2023-02-07T02:52:01.057Z,10.90
2023-02-07T02:54:36.905Z,4.40
2023-02-07T02:57:28.013Z,10.50
2023-02-07T03:00:08.290Z,8.40
2023-02-07T03:03:13.899Z,6.30
2023-02-07T03:05:46.691Z,7.50
2023-02-07T03:08:36.998Z,6.80
2023-02-07T03:11:10.192Z,7.30
2023-02-07T03:14:05.235Z,7.70
2023-02-07T03:16:40.487Z,7.50
2023-02-07T03:19:12.631Z,9.20
2023-02-07T03:21:48.196Z,9.30
2023-02-07T03:24:39.900Z,7.50
2023-02-07T03:27:09.512Z,9.60
2023-02-07T03:29:37.953Z,4.60
2023-02-07T03:32:07.128Z,9.50
2023-02-07T03:35:15.066Z,6.80
2023-02-07T03:37:59.153Z,7.30
2023-02-07T03:40:31.360Z,12.30
2023-02-07T03:42:59.375Z,8.70
2023-02-07T03:45:27.515Z,9.30
2023-02-07T03:47:55.788Z,10.90
2023-02-07T03:50:23.726Z,11.20
2023-02-07T03:52:51.710Z,4.30
2023-02-07T03:55:19.873Z,9.80
2023-02-07T03:57:47.802Z,7.40
2023-02-07T04:00:16.023Z,4.90
2023-02-07T04:02:44.025Z,9.50
2023-02-07T04:05:12.070Z,10.70
2023-02-07T04:07:40.154Z,10.50
2023-02-07T04:10:08.532Z,8.20
2023-02-07T04:12:37.014Z,8.60
2023-02-07T04:15:05.744Z,12.70
2023-02-07T04:17:33.734Z,5.60
2023-02-07T04:20:02.151Z,10.00
2023-02-07T04:22:30.281Z,14.60
2023-02-07T04:24:58.425Z,5.30
2023-02-07T04:27:26.585Z,10.60
2023-02-07T04:29:54.574Z,7.40
2023-02-07T04:32:22.694Z,7.80
2023-02-07T04:34:50.724Z,12.40
2023-02-07T04:37:18.707Z,5.80
2023-02-07T04:39:47.153Z,11.20
2023-02-07T04:42:15.186Z,10.90
2023-02-07T04:44:43.202Z,6.80
2023-02-07T04:47:11.170Z,5.90
2023-02-07T04:49:39.458Z,10.60
2023-02-07T04:52:07.607Z,9.30
2023-02-07T04:54:35.520Z,12.90
2023-02-07T04:57:04.822Z,8.20
2023-02-07T04:59:32.764Z,10.80
2023-02-07T05:02:00.667Z,5.80
2023-02-07T05:04:28.699Z,12.30
2023-02-07T05:06:56.703Z,9.80
2023-02-07T05:09:24.701Z,13.80
2023-02-07T05:11:52.782Z,11.00
2023-02-07T05:14:20.771Z,6.50
2023-02-07T05:16:49.030Z,12.00
2023-02-07T05:19:17.010Z,7.10
2023-02-07T05:21:44.976Z,7.40
2023-02-07T05:24:13.122Z,11.80
2023-02-07T05:26:41.076Z,9.50
2023-02-07T05:29:09.408Z,11.90
2023-02-07T05:31:56.024Z,9.30
2023-02-07T05:34:23.963Z,10.70
2023-02-07T05:36:52.022Z,13.60
2023-02-07T05:39:19.993Z,12.50
2023-02-07T05:41:48.013Z,12.80
2023-02-07T05:44:16.114Z,9.70
2023-02-07T05:46:44.251Z,9.30
2023-02-07T05:49:12.365Z,12.40
2023-02-07T05:51:40.389Z,12.00
2023-02-07T05:54:08.421Z,11.90
2023-02-07T05:56:36.587Z,11.00
2023-02-07T05:59:04.686Z,5.80
2023-02-07T06:01:32.917Z,8.60
2023-02-07T06:04:01.006Z,12.60
2023-02-07T06:06:29.019Z,9.00
2023-02-07T06:08:59.296Z,10.50
2023-02-07T06:11:27.335Z,5.10
2023-02-07T06:13:55.272Z,9.80
2023-02-07T06:16:23.277Z,11.00
2023-02-07T06:18:51.449Z,17.60
2023-02-07T06:21:19.613Z,42.30
2023-02-07T06:23:49.265Z,18.30
2023-02-07T06:26:20.675Z,18.00
2023-02-07T06:28:49.823Z,17.30
2023-02-07T06:31:17.967Z,22.40
2023-02-07T06:33:46.096Z,16.90
2023-02-07T06:36:14.062Z,17.10
2023-02-07T06:38:41.993Z,22.70
2023-02-07T06:41:11.392Z,16.40
2023-02-07T06:43:40.199Z,17.70
2023-02-07T06:46:08.557Z,18.00
2023-02-07T06:48:36.576Z,12.70
2023-02-07T06:51:04.796Z,23.50
2023-02-07T06:53:33.060Z,40.90
2023-02-07T06:56:01.130Z,30.50
2023-02-07T06:58:29.074Z,34.10
2023-02-07T07:00:57.091Z,34.50
2023-02-07T07:03:28.929Z,38.80
2023-02-07T07:05:57.846Z,38.10
2023-02-07T07:08:26.914Z,39.60
2023-02-07T07:10:56.054Z,32.40
2023-02-07T07:13:24.282Z,30.50
2023-02-07T07:15:52.357Z,31.40
2023-02-07T07:18:20.442Z,25.60
2023-02-07T07:20:53.932Z,28.00
2023-02-07T07:23:22.041Z,20.50
2023-02-07T07:25:50.110Z,24.80
2023-02-07T07:28:18.243Z,19.10
2023-02-07T07:30:46.711Z,17.70
2023-02-07T07:33:14.818Z,20.80
2023-02-07T07:35:43.009Z,20.00
2023-02-07T07:38:11.123Z,12.60
2023-02-07T07:40:39.314Z,19.20
2023-02-07T07:43:07.594Z,13.70
2023-02-07T07:45:44.326Z,17.20
2023-02-07T07:48:12.784Z,19.20
2023-02-07T07:50:41.238Z,15.90
2023-02-07T07:53:09.556Z,22.30
2023-02-07T07:55:38.550Z,21.90
2023-02-07T07:58:07.513Z,18.30
2023-02-07T08:00:35.529Z,22.20
2023-02-07T08:03:03.609Z,19.80
2023-02-07T08:05:31.586Z,16.30
2023-02-07T08:07:59.501Z,21.20
2023-02-07T08:10:27.592Z,13.00
2023-02-07T08:12:55.691Z,5.80
2023-02-07T08:15:24.862Z,20.70
2023-02-07T08:17:52.865Z,10.30
2023-02-07T08:20:20.975Z,18.70
2023-02-07T08:22:48.997Z,20.80
2023-02-07T08:25:16.989Z,13.20
2023-02-07T08:27:45.253Z,22.90
2023-02-07T08:30:13.773Z,22.00
2023-02-07T08:32:42.420Z,16.50
2023-02-07T08:35:10.424Z,14.10
2023-02-07T08:37:39.301Z,14.20
2023-02-07T08:40:07.942Z,23.90
2023-02-07T08:42:35.870Z,28.50
2023-02-07T08:45:07.492Z,26.20
2023-02-07T08:47:35.801Z,25.40
2023-02-07T08:50:05.594Z,24.00
2023-02-07T08:52:33.563Z,15.80
2023-02-07T08:55:01.720Z,15.20
2023-02-07T08:57:29.886Z,21.70
2023-02-07T08:59:58.404Z,24.50
2023-02-07T09:02:28.066Z,20.10
2023-02-07T09:04:56.354Z,24.60
2023-02-07T09:07:24.323Z,18.40
2023-02-07T09:09:52.495Z,21.20
2023-02-07T09:12:21.221Z,19.90
2023-02-07T09:14:49.292Z,20.80
2023-02-07T09:17:17.382Z,13.70
2023-02-07T09:19:45.404Z,20.90
2023-02-07T09:22:14.620Z,15.20
2023-02-07T09:24:42.944Z,20.20
2023-02-07T09:27:12.194Z,24.40
2023-02-07T09:29:41.005Z,18.70
2023-02-07T09:32:12.103Z,19.90
2023-02-07T09:34:40.097Z,16.90
2023-02-07T09:37:08.022Z,21.10
2023-02-07T09:39:40.324Z,24.80
2023-02-07T09:42:21.213Z,19.40
2023-02-07T09:44:57.884Z,18.50
2023-02-07T09:47:26.128Z,18.10
2023-02-07T09:50:15.192Z,17.00
2023-02-07T09:52:49.466Z,20.50
2023-02-07T09:55:51.099Z,12.10
2023-02-07T09:58:41.690Z,12.50
2023-02-07T10:01:24.712Z,17.00
2023-02-07T10:04:02.300Z,12.90
2023-02-07T10:06:30.357Z,15.30
2023-02-07T10:09:00.047Z,11.10
2023-02-07T10:11:41.974Z,9.40
2023-02-07T10:14:32.122Z,11.80
2023-02-07T10:17:16.480Z,13.10
2023-02-07T10:20:21.577Z,11.30
2023-02-07T10:23:01.198Z,6.10
2023-02-07T10:25:48.626Z,4.90
2023-02-07T10:28:16.668Z,8.30
2023-02-07T10:30:49.848Z,7.30
2023-02-07T10:33:20.055Z,8.60
2023-02-07T10:35:48.311Z,7.50
2023-02-07T10:38:30.876Z,6.40
2023-02-07T10:41:03.211Z,5.20
2023-02-07T10:43:33.068Z,9.40
2023-02-07T10:46:09.136Z,9.30
2023-02-07T10:48:37.784Z,5.90
2023-02-07T10:51:29.493Z,7.70
2023-02-07T10:54:02.676Z,12.70
2023-02-07T10:56:31.503Z,9.30
2023-02-07T10:58:59.783Z,6.50
2023-02-07T11:01:29.950Z,12.20
2023-02-07T11:03:58.198Z,7.70
2023-02-07T11:06:30.346Z,10.40
2023-02-07T11:09:11.969Z,9.10
2023-02-07T11:11:41.800Z,11.40
2023-02-07T11:14:11.949Z,13.00
2023-02-07T11:16:40.388Z,7.10
2023-02-07T11:19:08.387Z,10.30
2023-02-07T11:21:43.304Z,9.20
2023-02-07T11:24:16.919Z,11.20
2023-02-07T11:27:16.732Z,15.00
2023-02-07T11:29:54.097Z,4.90
2023-02-07T11:32:23.618Z,7.40
2023-02-07T11:34:58.340Z,10.90
2023-02-07T11:37:30.094Z,6.30
2023-02-07T11:40:16.962Z,9.20
2023-02-07T11:42:45.263Z,15.10
2023-02-07T11:45:18.786Z,11.10
2023-02-07T11:47:48.772Z,6.60
2023-02-07T11:50:29.899Z,13.00
2023-02-07T11:53:00.309Z,15.80
2023-02-07T11:55:35.198Z,12.30
2023-02-07T11:58:11.313Z,12.70
2023-02-07T12:00:39.294Z,8.80
2023-02-07T12:03:28.390Z,10.90
2023-02-07T12:05:58.174Z,9.30
2023-02-07T12:08:28.296Z,12.30
2023-02-07T12:10:58.664Z,6.50
2023-02-07T12:13:29.725Z,13.50
2023-02-07T12:16:14.643Z,9.50
2023-02-07T12:18:52.710Z,10.20
2023-02-07T12:21:26.752Z,8.50
2023-02-07T12:24:01.611Z,10.80
2023-02-07T12:27:08.461Z,10.30
2023-02-07T12:30:05.242Z,15.70
2023-02-07T12:32:44.506Z,11.60
2023-02-07T12:35:18.480Z,12.20
2023-02-07T12:37:52.292Z,12.80
2023-02-07T12:40:40.548Z,15.50
2023-02-07T12:43:32.145Z,13.40
2023-02-07T12:46:10.811Z,8.90
2023-02-07T12:49:01.218Z,8.00
2023-02-07T12:51:33.519Z,10.40
2023-02-07T12:54:23.900Z,11.50
2023-02-07T12:57:11.630Z,13.00
2023-02-07T12:59:50.592Z,10.20
2023-02-07T13:02:24.624Z,12.60
2023-02-07T13:05:07.617Z,9.90
2023-02-07T13:08:15.149Z,7.70
2023-02-07T13:12:27.960Z,14.80
2023-02-07T13:14:52.110Z,13.70
2023-02-07T13:17:26.364Z,12.10
2023-02-07T13:19:58.448Z,11.30
2023-02-07T13:22:47.982Z,11.70
2023-02-07T13:25:40.772Z,12.80
2023-02-07T13:28:32.205Z,12.60
2023-02-07T13:31:01.454Z,10.40
2023-02-07T13:33:39.089Z,12.80
2023-02-07T13:36:27.278Z,11.70
2023-02-07T13:38:58.060Z,12.20
2023-02-07T13:41:34.571Z,15.10
2023-02-07T13:44:24.521Z,13.80
2023-02-07T13:46:58.890Z,12.50
2023-02-07T13:49:45.424Z,13.60
2023-02-07T13:52:42.386Z,16.50
2023-02-07T13:55:33.294Z,11.60
2023-02-07T13:58:19.861Z,17.40
2023-02-07T14:00:47.878Z,16.50
2023-02-07T14:03:24.127Z,18.20
2023-02-07T14:05:52.583Z,19.70
2023-02-07T14:08:25.070Z,14.60
2023-02-07T14:10:56.341Z,16.90
2023-02-07T14:13:28.043Z,17.10
2023-02-07T14:15:56.339Z,12.00
2023-02-07T14:18:43.810Z,16.40
2023-02-07T14:21:24.333Z,16.20
2023-02-07T14:23:52.284Z,12.90
2023-02-07T14:26:43.007Z,15.50
2023-02-07T14:29:23.049Z,16.60
2023-02-07T14:32:00.901Z,18.70
2023-02-07T14:34:32.983Z,15.60
2023-02-07T14:37:01.113Z,18.60
2023-02-07T14:39:30.856Z,20.20
2023-02-07T14:42:13.397Z,19.00
2023-02-07T14:44:41.948Z,17.40
2023-02-07T14:47:24.099Z,16.20
2023-02-07T14:50:29.588Z,19.00
2023-02-07T14:52:58.781Z,11.10
2023-02-07T14:55:43.911Z,15.00
2023-02-07T14:58:44.397Z,17.80
2023-02-07T15:01:13.745Z,15.20
2023-02-07T15:03:41.801Z,17.90
2023-02-07T15:06:30.742Z,17.60
2023-02-07T15:09:03.294Z,17.00
2023-02-07T15:11:37.063Z,20.10
2023-02-07T15:14:05.050Z,17.20
2023-02-07T15:16:33.939Z,18.80
2023-02-07T15:19:19.956Z,14.70
2023-02-07T15:21:49.694Z,19.80
2023-02-07T15:24:37.120Z,16.80
2023-02-07T15:27:28.046Z,14.50
2023-02-07T15:29:58.265Z,16.60
2023-02-07T15:32:29.978Z,21.10
2023-02-07T15:34:58.653Z,22.40
2023-02-07T15:37:26.677Z,19.30
2023-02-07T15:39:55.743Z,26.60
2023-02-07T15:42:26.783Z,19.60
2023-02-07T15:44:56.833Z,27.50
2023-02-07T15:47:28.152Z,21.80
2023-02-07T15:50:01.876Z,19.90
2023-02-07T15:52:34.395Z,18.40
2023-02-07T15:55:04.765Z,23.50
2023-02-07T15:57:37.275Z,16.60
2023-02-07T16:00:07.894Z,16.60
2023-02-07T16:02:43.971Z,17.80
2023-02-07T16:05:17.627Z,24.00
2023-02-07T16:07:47.934Z,19.30
2023-02-07T16:10:22.744Z,14.60
2023-02-07T16:13:00.782Z,19.20
2023-02-07T16:15:35.531Z,20.40
2023-02-07T16:18:04.398Z,17.90
2023-02-07T16:20:35.485Z,19.70
2023-02-07T16:23:06.241Z,18.80
2023-02-07T16:25:34.990Z,17.00
2023-02-07T16:28:04.124Z,21.30
2023-02-07T16:30:35.518Z,18.90
2023-02-07T16:33:07.163Z,19.70
2023-02-07T16:35:35.263Z,14.90
2023-02-07T16:38:03.332Z,15.70
2023-02-07T16:40:31.406Z,23.40
2023-02-07T16:42:59.357Z,20.10
2023-02-07T16:45:28.458Z,18.30
2023-02-07T16:48:16.186Z,25.00
2023-02-07T16:51:53.558Z,17.80
2023-02-07T16:59:14.953Z,22.00
2023-02-07T17:03:14.367Z,20.50
2023-02-07T17:06:25.264Z,22.80
2023-02-07T17:09:44.805Z,15.20
2023-02-07T17:12:14.657Z,18.70
2023-02-07T17:14:42.793Z,20.00
2023-02-07T17:17:11.934Z,23.20
2023-02-07T17:19:39.976Z,19.80
2023-02-07T17:22:08.205Z,21.00
2023-02-07T17:24:36.250Z,19.90
2023-02-07T17:27:04.205Z,23.20
2023-02-07T17:29:34.060Z,18.50
2023-02-07T17:32:02.063Z,21.00
2023-02-07T17:34:30.121Z,20.90
2023-02-07T17:36:58.066Z,19.10
2023-02-07T17:39:26.210Z,23.80
2023-02-07T17:41:54.375Z,21.90
2023-02-07T17:44:24.556Z,21.40
2023-02-07T17:46:52.543Z,21.40
2023-02-07T17:49:20.434Z,20.70
2023-02-07T17:51:48.441Z,21.90
2023-02-07T17:54:16.623Z,24.40
2023-02-07T17:56:44.516Z,25.80
2023-02-07T17:59:20.613Z,21.20
2023-02-07T18:01:48.526Z,20.30
2023-02-07T18:04:16.542Z,26.90
2023-02-07T18:06:44.489Z,23.20
2023-02-07T18:09:18.495Z,24.60
2023-02-07T18:11:46.500Z,14.70
2023-02-07T18:14:17.303Z,16.70
2023-02-07T18:16:45.437Z,18.50
2023-02-07T18:19:15.654Z,21.70
2023-02-07T18:21:44.923Z,18.60
2023-02-07T18:24:13.859Z,24.20
2023-02-07T18:26:42.008Z,18.80
2023-02-07T18:29:09.985Z,23.10
2023-02-07T18:31:38.702Z,23.60
2023-02-07T18:34:07.080Z,17.40
2023-02-07T18:36:40.706Z,22.10
2023-02-07T18:39:10.515Z,18.20
2023-02-07T18:41:38.833Z,16.50
2023-02-07T18:44:06.904Z,19.40
2023-02-07T18:46:35.227Z,17.30
2023-02-07T18:49:03.301Z,23.50
2023-02-07T18:51:31.348Z,15.30
2023-02-07T18:53:59.440Z,21.10
2023-02-07T18:56:27.572Z,27.10
2023-02-07T18:58:56.937Z,19.50
2023-02-07T19:01:26.101Z,9.00
2023-02-07T19:03:55.215Z,16.00
2023-02-07T19:06:27.241Z,20.80
2023-02-07T19:08:55.750Z,18.10
2023-02-07T19:11:23.789Z,17.40
2023-02-07T19:13:51.785Z,15.80
2023-02-07T19:16:21.441Z,16.10
2023-02-07T19:18:50.216Z,20.30
2023-02-07T19:21:21.752Z,17.80
2023-02-07T19:23:49.876Z,18.70
2023-02-07T19:26:17.813Z,9.80
2023-02-07T19:28:45.942Z,18.30
2023-02-07T19:31:18.163Z,21.00
2023-02-07T19:33:49.570Z,21.80
2023-02-07T19:36:18.396Z,21.80
2023-02-07T19:38:49.038Z,19.90
2023-02-07T19:41:19.382Z,22.40
2023-02-07T19:43:47.707Z,25.80
2023-02-07T19:46:16.268Z,27.30
2023-02-07T19:48:45.252Z,22.40
2023-02-07T19:51:20.991Z,21.70
2023-02-07T19:53:51.219Z,20.00
2023-02-07T19:56:22.752Z,25.30
2023-02-07T19:58:52.740Z,17.80
2023-02-07T20:01:21.750Z,13.70
2023-02-07T20:03:55.952Z,24.40
2023-02-07T20:06:29.183Z,22.20
2023-02-07T20:08:57.687Z,21.20
2023-02-07T20:11:27.044Z,18.70
2023-02-07T20:13:56.153Z,22.60
2023-02-07T20:16:25.853Z,23.10
2023-02-07T20:18:54.071Z,23.40
2023-02-07T20:21:24.810Z,22.80
2023-02-07T20:23:53.796Z,23.10
2023-02-07T20:26:24.179Z,24.50
2023-02-07T20:28:52.499Z,24.70
2023-02-07T20:31:23.373Z,27.60
2023-02-07T20:33:53.671Z,18.00
2023-02-07T20:36:21.849Z,23.30
2023-02-07T20:38:49.910Z,19.80
2023-02-07T20:41:29.272Z,25.70
2023-02-07T20:44:05.621Z,25.80
2023-02-07T20:46:35.632Z,37.40
2023-02-07T20:49:09.445Z,26.50
2023-02-07T20:51:38.159Z,19.40
2023-02-07T20:54:06.643Z,18.80
2023-02-07T20:56:34.655Z,25.30
2023-02-07T20:59:03.539Z,19.00
2023-02-07T21:01:32.509Z,22.90
2023-02-07T21:04:02.213Z,25.10
2023-02-07T21:06:31.063Z,17.80
2023-02-07T21:09:00.988Z,15.90
2023-02-07T21:11:41.082Z,18.60
2023-02-07T21:14:24.961Z,19.60
2023-02-07T21:16:54.402Z,25.20
2023-02-07T21:19:23.299Z,18.90
2023-02-07T21:21:52.310Z,26.20
2023-02-07T21:24:20.352Z,22.60
2023-02-07T21:26:49.247Z,20.90
2023-02-07T21:29:17.517Z,16.00
2023-02-07T21:31:48.920Z,15.80
2023-02-07T21:34:21.112Z,21.90
2023-02-07T21:36:49.943Z,19.50
2023-02-07T21:39:17.938Z,20.30
2023-02-07T21:41:46.461Z,17.10
2023-02-07T21:44:14.586Z,13.90
2023-02-07T21:46:49.458Z,17.10
2023-02-07T21:49:18.143Z,21.30
2023-02-07T21:51:48.183Z,17.10
2023-02-07T21:54:19.016Z,26.80
2023-02-07T21:56:46.976Z,22.50
2023-02-07T22:00:35.733Z,23.20
2023-02-07T22:03:57.254Z,22.10
2023-02-07T22:06:29.087Z,23.30
2023-02-07T22:08:59.618Z,18.60
2023-02-07T22:11:32.922Z,21.80
2023-02-07T22:14:01.280Z,19.00
2023-02-07T22:16:38.089Z,23.20
2023-02-07T22:19:07.398Z,21.30
2023-02-07T22:21:36.766Z,19.30
2023-02-07T22:24:05.410Z,22.30
2023-02-07T22:26:33.718Z,26.30
2023-02-07T22:29:02.377Z,21.40
2023-02-07T22:31:31.711Z,22.90
2023-02-07T22:34:08.012Z,21.00
2023-02-07T22:36:37.780Z,18.20
2023-02-07T22:39:07.051Z,18.80
2023-02-07T22:41:35.073Z,21.20
2023-02-07T22:44:03.533Z,17.50
2023-02-07T22:46:31.831Z,20.00
2023-02-07T22:48:59.838Z,20.20
2023-02-07T22:51:29.075Z,19.70
2023-02-07T22:53:59.390Z,20.90
2023-02-07T22:56:27.769Z,20.70
2023-02-07T22:58:56.142Z,17.80
2023-02-07T23:01:32.943Z,16.30
2023-02-07T23:04:05.244Z,18.50
2023-02-07T23:06:33.482Z,14.50
2023-02-07T23:09:01.588Z,15.10
2023-02-07T23:11:29.612Z,18.40
2023-02-07T23:13:57.620Z,18.90
2023-02-07T23:16:43.389Z,24.10
2023-02-07T23:19:14.061Z,19.20
2023-02-07T23:21:42.229Z,19.30
2023-02-07T23:24:10.855Z,17.70
2023-02-07T23:26:39.078Z,20.80
2023-02-07T23:29:07.075Z,17.60
2023-02-07T23:31:35.191Z,21.30
2023-02-07T23:34:03.388Z,19.50
2023-02-07T23:36:31.424Z,16.70
2023-02-07T23:38:59.484Z,18.40
2023-02-07T23:41:27.669Z,18.30
2023-02-07T23:43:57.166Z,18.30
2023-02-07T23:46:26.838Z,18.20
2023-02-07T23:48:55.522Z,18.40
2023-02-07T23:51:23.629Z,24.20
2023-02-07T23:53:51.658Z,16.80
2023-02-07T23:56:21.024Z,20.00
2023-02-07T23:58:49.807Z,22.70
